sensor_id;sensor_type;location;lat;lon;timestamp;temperature;humidity
9847;DHT22;68671;50.084;8.794;2023-05-14T00:01:19;16.70;99.90
9847;DHT22;68671;50.084;8.794;2023-05-14T00:03:48;16.60;99.90
9847;DHT22;68671;50.084;8.794;2023-05-14T00:06:14;16.50;99.90
9847;DHT22;68671;50.084;8.794;2023-05-14T00:08:41;16.40;99.90
9847;DHT22;68671;50.084;8.794;2023-05-14T00:11:08;16.50;99.90
9847;DHT22;68671;50.084;8.794;2023-05-14T00:13:36;16.50;99.90
9847;DHT22;68671;50.084;8.794;2023-05-14T00:16:03;16.60;99.90
9847;DHT22;68671;50.084;8.794;2023-05-14T00:18:30;16.70;99.90
9847;DHT22;68671;50.084;8.794;2023-05-14T00:20:59;16.80;99.90
9847;DHT22;68671;50.084;8.794;2023-05-14T00:23:26;16.90;99.90
9847;DHT22;68671;50.084;8.794;2023-05-14T00:25:52;16.90;99.90
9847;DHT22;68671;50.084;8.794;2023-05-14T00:28:20;17.00;99.90
9847;DHT22;68671;50.084;8.794;2023-05-14T00:30:47;17.00;99.90
9847;DHT22;68671;50.084;8.794;2023-05-14T00:33:14;17.10;99.90
9847;DHT22;68671;50.084;8.794;2023-05-14T00:35:40;17.10;99.90
9847;DHT22;68671;50.084;8.794;2023-05-14T00:38:09;17.10;99.90
9847;DHT22;68671;50.084;8.794;2023-05-14T00:40:41;17.10;99.90
9847;DHT22;68671;50.084;8.794;2023-05-14T00:43:10;16.90;99.90
9847;DHT22;68671;50.084;8.794;2023-05-14T00:45:37;16.80;99.90
9847;DHT22;68671;50.084;8.794;2023-05-14T00:48:04;16.70;99.90
9847;DHT22;68671;50.084;8.794;2023-05-14T00:50:31;16.40;99.90
9847;DHT22;68671;50.084;8.794;2023-05-14T00:52:59;16.40;99.90
9847;DHT22;68671;50.084;8.794;2023-05-14T00:55:29;16.40;99.90
9847;DHT22;68671;50.084;8.794;2023-05-14T00:57:57;16.20;99.90
9847;DHT22;68671;50.084;8.794;2023-05-14T01:00:25;16.20;99.90
9847;DHT22;68671;50.084;8.794;2023-05-14T01:02:51;16.10;99.90
9847;DHT22;68671;50.084;8.794;2023-05-14T01:05:18;16.10;99.90
9847;DHT22;68671;50.084;8.794;2023-05-14T01:07:52;16.10;99.90
9847;DHT22;68671;50.084;8.794;2023-05-14T01:10:31;16.10;99.90
9847;DHT22;68671;50.084;8.794;2023-05-14T01:13:08;16.00;99.90
9847;DHT22;68671;50.084;8.794;2023-05-14T01:15:37;15.90;99.90
9847;DHT22;68671;50.084;8.794;2023-05-14T01:18:07;15.90;99.90
9847;DHT22;68671;50.084;8.794;2023-05-14T01:20:35;15.80;99.90
9847;DHT22;68671;50.084;8.794;2023-05-14T01:23:04;15.70;99.90
9847;DHT22;68671;50.084;8.794;2023-05-14T01:25:31;15.50;99.90
9847;DHT22;68671;50.084;8.794;2023-05-14T01:28:02;15.50;99.90
9847;DHT22;68671;50.084;8.794;2023-05-14T01:30:35;15.50;99.90
9847;DHT22;68671;50.084;8.794;2023-05-14T01:33:05;15.30;99.90
9847;DHT22;68671;50.084;8.794;2023-05-14T01:35:34;15.30;99.90
9847;DHT22;68671;50.084;8.794;2023-05-14T01:38:07;15.20;99.90
9847;DHT22;68671;50.084;8.794;2023-05-14T01:40:36;15.10;99.90
9847;DHT22;68671;50.084;8.794;2023-05-14T01:43:04;14.90;99.90
9847;DHT22;68671;50.084;8.794;2023-05-14T01:45:34;15.00;99.90
9847;DHT22;68671;50.084;8.794;2023-05-14T01:48:02;15.00;99.90
9847;DHT22;68671;50.084;8.794;2023-05-14T01:50:30;15.00;99.90
9847;DHT22;68671;50.084;8.794;2023-05-14T01:52:57;15.00;99.90
9847;DHT22;68671;50.084;8.794;2023-05-14T01:55:25;15.10;99.90
9847;DHT22;68671;50.084;8.794;2023-05-14T01:57:52;15.10;99.90
9847;DHT22;68671;50.084;8.794;2023-05-14T02:00:21;15.20;99.90
9847;DHT22;68671;50.084;8.794;2023-05-14T02:02:48;15.30;99.90
9847;DHT22;68671;50.084;8.794;2023-05-14T02:05:15;15.40;99.90
9847;DHT22;68671;50.084;8.794;2023-05-14T02:07:42;15.60;99.90
9847;DHT22;68671;50.084;8.794;2023-05-14T02:10:09;15.60;99.90
9847;DHT22;68671;50.084;8.794;2023-05-14T02:12:38;15.60;99.90
9847;DHT22;68671;50.084;8.794;2023-05-14T02:15:06;15.70;99.90
9847;DHT22;68671;50.084;8.794;2023-05-14T02:17:35;15.70;99.90
9847;DHT22;68671;50.084;8.794;2023-05-14T02:20:02;15.70;99.90
9847;DHT22;68671;50.084;8.794;2023-05-14T02:22:29;15.70;99.90
9847;DHT22;68671;50.084;8.794;2023-05-14T02:24:56;15.70;99.90
9847;DHT22;68671;50.084;8.794;2023-05-14T02:27:23;15.60;99.90
9847;DHT22;68671;50.084;8.794;2023-05-14T02:29:52;15.60;99.90
9847;DHT22;68671;50.084;8.794;2023-05-14T02:32:19;15.50;99.90
9847;DHT22;68671;50.084;8.794;2023-05-14T02:34:46;15.30;99.90
9847;DHT22;68671;50.084;8.794;2023-05-14T02:37:12;15.20;99.90
9847;DHT22;68671;50.084;8.794;2023-05-14T02:39:39;15.00;99.90
9847;DHT22;68671;50.084;8.794;2023-05-14T02:42:06;15.00;99.90
9847;DHT22;68671;50.084;8.794;2023-05-14T02:44:33;15.00;99.90
9847;DHT22;68671;50.084;8.794;2023-05-14T02:47:02;15.10;99.90
9847;DHT22;68671;50.084;8.794;2023-05-14T02:49:29;15.10;99.90
9847;DHT22;68671;50.084;8.794;2023-05-14T02:51:56;15.20;99.90
9847;DHT22;68671;50.084;8.794;2023-05-14T02:54:25;15.30;99.90
9847;DHT22;68671;50.084;8.794;2023-05-14T02:56:52;15.30;99.90
9847;DHT22;68671;50.084;8.794;2023-05-14T02:59:19;15.40;99.90
9847;DHT22;68671;50.084;8.794;2023-05-14T03:01:46;15.40;99.90
9847;DHT22;68671;50.084;8.794;2023-05-14T03:04:14;15.30;99.90
9847;DHT22;68671;50.084;8.794;2023-05-14T03:06:41;15.20;99.90
9847;DHT22;68671;50.084;8.794;2023-05-14T03:09:08;15.20;99.90
9847;DHT22;68671;50.084;8.794;2023-05-14T03:11:35;15.20;99.90
9847;DHT22;68671;50.084;8.794;2023-05-14T03:14:02;15.20;99.90
9847;DHT22;68671;50.084;8.794;2023-05-14T03:16:29;15.20;99.90
9847;DHT22;68671;50.084;8.794;2023-05-14T03:18:56;15.20;99.90
9847;DHT22;68671;50.084;8.794;2023-05-14T03:21:24;15.20;99.90
9847;DHT22;68671;50.084;8.794;2023-05-14T03:23:52;15.20;99.90
9847;DHT22;68671;50.084;8.794;2023-05-14T03:26:19;15.20;99.90
9847;DHT22;68671;50.084;8.794;2023-05-14T03:28:46;15.10;99.90
9847;DHT22;68671;50.084;8.794;2023-05-14T03:31:13;15.20;99.90
9847;DHT22;68671;50.084;8.794;2023-05-14T03:33:40;15.10;99.90
9847;DHT22;68671;50.084;8.794;2023-05-14T03:36:07;15.20;99.90
9847;DHT22;68671;50.084;8.794;2023-05-14T03:38:35;15.00;99.90
9847;DHT22;68671;50.084;8.794;2023-05-14T03:41:02;14.90;99.90
9847;DHT22;68671;50.084;8.794;2023-05-14T03:43:29;14.80;99.90
9847;DHT22;68671;50.084;8.794;2023-05-14T03:45:56;14.70;99.90
9847;DHT22;68671;50.084;8.794;2023-05-14T03:48:23;14.50;99.90
9847;DHT22;68671;50.084;8.794;2023-05-14T03:50:50;14.40;99.90
9847;DHT22;68671;50.084;8.794;2023-05-14T03:53:17;14.30;99.90
9847;DHT22;68671;50.084;8.794;2023-05-14T03:55:45;14.20;99.90
9847;DHT22;68671;50.084;8.794;2023-05-14T03:58:12;14.10;99.90
9847;DHT22;68671;50.084;8.794;2023-05-14T04:00:40;14.00;99.90
9847;DHT22;68671;50.084;8.794;2023-05-14T04:03:07;13.90;99.90
9847;DHT22;68671;50.084;8.794;2023-05-14T04:05:34;13.90;99.90
9847;DHT22;68671;50.084;8.794;2023-05-14T04:08:01;13.80;99.90
9847;DHT22;68671;50.084;8.794;2023-05-14T04:10:27;13.80;99.90
9847;DHT22;68671;50.084;8.794;2023-05-14T04:12:56;13.80;99.90
9847;DHT22;68671;50.084;8.794;2023-05-14T04:15:23;13.80;99.90
9847;DHT22;68671;50.084;8.794;2023-05-14T04:17:50;13.80;99.90
9847;DHT22;68671;50.084;8.794;2023-05-14T04:20:17;13.90;99.90
9847;DHT22;68671;50.084;8.794;2023-05-14T04:22:44;14.00;99.90
9847;DHT22;68671;50.084;8.794;2023-05-14T04:25:11;14.10;99.90
9847;DHT22;68671;50.084;8.794;2023-05-14T04:27:38;14.20;99.90
9847;DHT22;68671;50.084;8.794;2023-05-14T04:30:08;14.30;99.90
9847;DHT22;68671;50.084;8.794;2023-05-14T04:32:35;14.20;99.90
9847;DHT22;68671;50.084;8.794;2023-05-14T04:35:02;14.20;99.90
9847;DHT22;68671;50.084;8.794;2023-05-14T04:37:30;14.10;99.90
9847;DHT22;68671;50.084;8.794;2023-05-14T04:39:57;14.10;99.90
9847;DHT22;68671;50.084;8.794;2023-05-14T04:42:24;14.10;99.90
9847;DHT22;68671;50.084;8.794;2023-05-14T04:44:51;14.30;99.90
9847;DHT22;68671;50.084;8.794;2023-05-14T04:47:19;14.40;99.90
9847;DHT22;68671;50.084;8.794;2023-05-14T04:49:46;14.60;99.90
9847;DHT22;68671;50.084;8.794;2023-05-14T04:52:13;15.00;99.90
9847;DHT22;68671;50.084;8.794;2023-05-14T04:54:40;15.30;99.90
9847;DHT22;68671;50.084;8.794;2023-05-14T04:57:07;15.80;99.90
9847;DHT22;68671;50.084;8.794;2023-05-14T04:59:34;16.20;99.90
9847;DHT22;68671;50.084;8.794;2023-05-14T05:02:01;16.50;99.90
9847;DHT22;68671;50.084;8.794;2023-05-14T05:04:29;16.90;99.90
9847;DHT22;68671;50.084;8.794;2023-05-14T05:06:56;17.20;99.90
9847;DHT22;68671;50.084;8.794;2023-05-14T05:09:23;17.30;99.90
9847;DHT22;68671;50.084;8.794;2023-05-14T05:11:50;17.40;99.90
9847;DHT22;68671;50.084;8.794;2023-05-14T05:14:17;17.50;99.90
9847;DHT22;68671;50.084;8.794;2023-05-14T05:16:44;17.40;99.90
9847;DHT22;68671;50.084;8.794;2023-05-14T05:19:11;17.30;99.90
9847;DHT22;68671;50.084;8.794;2023-05-14T05:21:40;17.20;99.90
9847;DHT22;68671;50.084;8.794;2023-05-14T05:24:07;17.10;99.90
9847;DHT22;68671;50.084;8.794;2023-05-14T05:26:34;16.90;99.90
9847;DHT22;68671;50.084;8.794;2023-05-14T05:29:02;16.90;99.90
9847;DHT22;68671;50.084;8.794;2023-05-14T05:31:29;17.10;99.90
9847;DHT22;68671;50.084;8.794;2023-05-14T05:33:57;17.30;99.90
9847;DHT22;68671;50.084;8.794;2023-05-14T05:36:25;17.60;99.90
9847;DHT22;68671;50.084;8.794;2023-05-14T05:38:54;18.00;99.90
9847;DHT22;68671;50.084;8.794;2023-05-14T05:41:21;18.40;99.90
9847;DHT22;68671;50.084;8.794;2023-05-14T05:43:48;18.90;99.90
9847;DHT22;68671;50.084;8.794;2023-05-14T05:46:15;19.50;99.90
9847;DHT22;68671;50.084;8.794;2023-05-14T05:48:42;20.10;99.90
9847;DHT22;68671;50.084;8.794;2023-05-14T05:51:09;20.60;99.90
9847;DHT22;68671;50.084;8.794;2023-05-14T05:53:36;21.10;99.90
9847;DHT22;68671;50.084;8.794;2023-05-14T05:56:05;21.60;99.90
9847;DHT22;68671;50.084;8.794;2023-05-14T05:58:32;22.20;99.90
9847;DHT22;68671;50.084;8.794;2023-05-14T06:00:59;22.70;99.90
9847;DHT22;68671;50.084;8.794;2023-05-14T06:03:26;23.30;99.90
9847;DHT22;68671;50.084;8.794;2023-05-14T06:05:53;23.80;99.90
9847;DHT22;68671;50.084;8.794;2023-05-14T06:08:20;24.20;99.90
9847;DHT22;68671;50.084;8.794;2023-05-14T06:10:46;24.60;99.90
9847;DHT22;68671;50.084;8.794;2023-05-14T06:13:15;25.00;99.90
9847;DHT22;68671;50.084;8.794;2023-05-14T06:15:42;25.30;99.90
9847;DHT22;68671;50.084;8.794;2023-05-14T06:18:08;25.70;99.30
9847;DHT22;68671;50.084;8.794;2023-05-14T06:20:36;26.00;98.50
9847;DHT22;68671;50.084;8.794;2023-05-14T06:23:03;26.10;97.60
9847;DHT22;68671;50.084;8.794;2023-05-14T06:25:30;26.40;96.80
9847;DHT22;68671;50.084;8.794;2023-05-14T06:27:57;26.60;95.70
9847;DHT22;68671;50.084;8.794;2023-05-14T06:30:25;27.00;95.30
9847;DHT22;68671;50.084;8.794;2023-05-14T06:32:52;27.30;94.20
9847;DHT22;68671;50.084;8.794;2023-05-14T06:35:19;27.60;93.20
9847;DHT22;68671;50.084;8.794;2023-05-14T06:37:46;27.80;92.20
9847;DHT22;68671;50.084;8.794;2023-05-14T06:40:13;28.10;91.10
9847;DHT22;68671;50.084;8.794;2023-05-14T06:42:41;28.40;90.20
9847;DHT22;68671;50.084;8.794;2023-05-14T06:45:08;28.60;87.80
9847;DHT22;68671;50.084;8.794;2023-05-14T06:47:37;28.80;86.40
9847;DHT22;68671;50.084;8.794;2023-05-14T06:50:04;29.10;85.70
9847;DHT22;68671;50.084;8.794;2023-05-14T06:52:31;29.20;84.10
9847;DHT22;68671;50.084;8.794;2023-05-14T06:54:58;29.40;82.90
9847;DHT22;68671;50.084;8.794;2023-05-14T06:57:25;29.50;81.80
9847;DHT22;68671;50.084;8.794;2023-05-14T06:59:52;29.70;81.10
9847;DHT22;68671;50.084;8.794;2023-05-14T07:02:19;29.90;80.80
9847;DHT22;68671;50.084;8.794;2023-05-14T07:04:47;30.30;79.80
9847;DHT22;68671;50.084;8.794;2023-05-14T07:07:14;30.60;79.20
9847;DHT22;68671;50.084;8.794;2023-05-14T07:09:45;31.00;78.40
9847;DHT22;68671;50.084;8.794;2023-05-14T07:12:12;31.40;77.40
9847;DHT22;68671;50.084;8.794;2023-05-14T07:14:39;31.70;76.50
9847;DHT22;68671;50.084;8.794;2023-05-14T07:20:23;32.60;74.00
9847;DHT22;68671;50.084;8.794;2023-05-14T07:22:51;33.00;72.50
9847;DHT22;68671;50.084;8.794;2023-05-14T07:25:18;33.30;71.40
9847;DHT22;68671;50.084;8.794;2023-05-14T07:27:45;33.60;70.10
9847;DHT22;68671;50.084;8.794;2023-05-14T07:30:48;34.00;67.90
9847;DHT22;68671;50.084;8.794;2023-05-14T07:36:38;34.60;63.50
9847;DHT22;68671;50.084;8.794;2023-05-14T07:39:16;34.80;61.00
9847;DHT22;68671;50.084;8.794;2023-05-14T07:45:09;35.00;59.10
9847;DHT22;68671;50.084;8.794;2023-05-14T07:47:48;35.20;58.00
9847;DHT22;68671;50.084;8.794;2023-05-14T07:50:25;35.30;57.10
9847;DHT22;68671;50.084;8.794;2023-05-14T07:56:35;35.50;55.60
9847;DHT22;68671;50.084;8.794;2023-05-14T07:59:26;35.60;55.10
9847;DHT22;68671;50.084;8.794;2023-05-14T08:02:25;35.80;54.60
9847;DHT22;68671;50.084;8.794;2023-05-14T08:05:25;35.90;53.50
9847;DHT22;68671;50.084;8.794;2023-05-14T09:20:04;24.40;53.80
9847;DHT22;68671;50.084;8.794;2023-05-14T09:22:38;24.30;53.40
9847;DHT22;68671;50.084;8.794;2023-05-14T09:25:10;24.10;53.10
9847;DHT22;68671;50.084;8.794;2023-05-14T09:27:41;23.90;53.20
9847;DHT22;68671;50.084;8.794;2023-05-14T09:30:33;23.70;53.70
9847;DHT22;68671;50.084;8.794;2023-05-14T09:33:44;23.60;54.40
9847;DHT22;68671;50.084;8.794;2023-05-14T09:36:21;23.60;54.60
9847;DHT22;68671;50.084;8.794;2023-05-14T09:39:04;23.70;54.70
9847;DHT22;68671;50.084;8.794;2023-05-14T09:41:44;23.70;54.90
9847;DHT22;68671;50.084;8.794;2023-05-14T09:44:15;23.70;54.80
9847;DHT22;68671;50.084;8.794;2023-05-14T09:46:50;23.60;54.60
9847;DHT22;68671;50.084;8.794;2023-05-14T09:49:37;23.50;54.80
9847;DHT22;68671;50.084;8.794;2023-05-14T09:52:16;23.50;54.90
9847;DHT22;68671;50.084;8.794;2023-05-14T09:54:47;23.50;54.70
9847;DHT22;68671;50.084;8.794;2023-05-14T09:57:17;23.50;54.90
9847;DHT22;68671;50.084;8.794;2023-05-14T09:59:44;23.50;55.40
9847;DHT22;68671;50.084;8.794;2023-05-14T10:02:15;23.50;56.00
9847;DHT22;68671;50.084;8.794;2023-05-14T10:04:49;23.50;55.30
9847;DHT22;68671;50.084;8.794;2023-05-14T10:07:20;23.50;55.00
9847;DHT22;68671;50.084;8.794;2023-05-14T10:09:50;23.50;55.50
9847;DHT22;68671;50.084;8.794;2023-05-14T10:12:21;23.40;55.90
9847;DHT22;68671;50.084;8.794;2023-05-14T10:14:49;23.40;56.50
9847;DHT22;68671;50.084;8.794;2023-05-14T10:17:20;23.50;56.20
9847;DHT22;68671;50.084;8.794;2023-05-14T10:19:53;23.40;55.40
9847;DHT22;68671;50.084;8.794;2023-05-14T10:22:26;23.30;54.70
9847;DHT22;68671;50.084;8.794;2023-05-14T10:24:56;23.30;54.40
9847;DHT22;68671;50.084;8.794;2023-05-14T10:27:24;23.30;55.00
9847;DHT22;68671;50.084;8.794;2023-05-14T10:29:52;23.20;55.50
9847;DHT22;68671;50.084;8.794;2023-05-14T10:32:21;23.20;56.10
9847;DHT22;68671;50.084;8.794;2023-05-14T10:34:52;23.10;56.10
9847;DHT22;68671;50.084;8.794;2023-05-14T10:37:21;23.20;56.60
9847;DHT22;68671;50.084;8.794;2023-05-14T10:39:52;23.20;56.70
9847;DHT22;68671;50.084;8.794;2023-05-14T10:42:22;23.20;56.50
9847;DHT22;68671;50.084;8.794;2023-05-14T10:44:52;23.20;56.40
9847;DHT22;68671;50.084;8.794;2023-05-14T10:47:20;23.20;56.70
9847;DHT22;68671;50.084;8.794;2023-05-14T10:49:48;23.30;56.70
9847;DHT22;68671;50.084;8.794;2023-05-14T10:52:17;23.20;56.30
9847;DHT22;68671;50.084;8.794;2023-05-14T10:54:48;23.20;55.20
9847;DHT22;68671;50.084;8.794;2023-05-14T10:57:17;23.20;54.40
9847;DHT22;68671;50.084;8.794;2023-05-14T10:59:45;23.10;54.40
9847;DHT22;68671;50.084;8.794;2023-05-14T11:02:20;23.00;54.60
9847;DHT22;68671;50.084;8.794;2023-05-14T11:04:56;23.00;55.00
9847;DHT22;68671;50.084;8.794;2023-05-14T11:07:27;23.00;55.60
9847;DHT22;68671;50.084;8.794;2023-05-14T11:10:00;23.10;55.60
9847;DHT22;68671;50.084;8.794;2023-05-14T11:12:28;23.00;55.30
9847;DHT22;68671;50.084;8.794;2023-05-14T11:14:56;23.10;55.70
9847;DHT22;68671;50.084;8.794;2023-05-14T11:17:24;23.10;55.30
9847;DHT22;68671;50.084;8.794;2023-05-14T11:19:51;23.10;55.00
9847;DHT22;68671;50.084;8.794;2023-05-14T11:22:18;23.20;54.90
9847;DHT22;68671;50.084;8.794;2023-05-14T11:24:47;23.20;54.70
9847;DHT22;68671;50.084;8.794;2023-05-14T11:27:14;23.20;54.00
9847;DHT22;68671;50.084;8.794;2023-05-14T11:29:43;23.30;53.70
9847;DHT22;68671;50.084;8.794;2023-05-14T11:32:11;23.30;53.10
9847;DHT22;68671;50.084;8.794;2023-05-14T11:34:38;23.20;52.30
9847;DHT22;68671;50.084;8.794;2023-05-14T11:37:06;23.20;53.00
9847;DHT22;68671;50.084;8.794;2023-05-14T11:39:34;23.20;53.10
9847;DHT22;68671;50.084;8.794;2023-05-14T11:42:04;23.20;53.10
9847;DHT22;68671;50.084;8.794;2023-05-14T11:44:31;23.20;52.40
9847;DHT22;68671;50.084;8.794;2023-05-14T11:46:58;23.20;52.30
9847;DHT22;68671;50.084;8.794;2023-05-14T11:49:27;23.20;52.70
9847;DHT22;68671;50.084;8.794;2023-05-14T11:51:58;23.30;53.50
9847;DHT22;68671;50.084;8.794;2023-05-14T11:54:25;23.40;53.90
9847;DHT22;68671;50.084;8.794;2023-05-14T11:56:54;23.50;54.00
9847;DHT22;68671;50.084;8.794;2023-05-14T11:59:23;23.60;53.30
9847;DHT22;68671;50.084;8.794;2023-05-14T12:01:51;23.70;52.60
9847;DHT22;68671;50.084;8.794;2023-05-14T12:04:18;23.70;51.70
9847;DHT22;68671;50.084;8.794;2023-05-14T12:06:47;23.70;51.60
9847;DHT22;68671;50.084;8.794;2023-05-14T12:09:15;23.70;51.50
9847;DHT22;68671;50.084;8.794;2023-05-14T12:11:43;23.70;51.40
9847;DHT22;68671;50.084;8.794;2023-05-14T12:14:13;23.80;50.50
9847;DHT22;68671;50.084;8.794;2023-05-14T12:16:43;23.80;50.00
9847;DHT22;68671;50.084;8.794;2023-05-14T12:19:12;23.90;50.40
9847;DHT22;68671;50.084;8.794;2023-05-14T12:21:41;23.90;50.40
9847;DHT22;68671;50.084;8.794;2023-05-14T12:24:09;23.90;50.30
9847;DHT22;68671;50.084;8.794;2023-05-14T12:26:37;23.90;50.40
9847;DHT22;68671;50.084;8.794;2023-05-14T12:29:04;23.80;50.50
9847;DHT22;68671;50.084;8.794;2023-05-14T12:31:33;23.70;50.20
9847;DHT22;68671;50.084;8.794;2023-05-14T12:34:03;23.70;50.50
9847;DHT22;68671;50.084;8.794;2023-05-14T12:36:30;23.80;51.10
9847;DHT22;68671;50.084;8.794;2023-05-14T12:38:59;23.80;49.40
9847;DHT22;68671;50.084;8.794;2023-05-14T12:41:28;23.70;49.20
9847;DHT22;68671;50.084;8.794;2023-05-14T12:44:06;23.60;49.70
9847;DHT22;68671;50.084;8.794;2023-05-14T12:46:33;23.60;49.90
9847;DHT22;68671;50.084;8.794;2023-05-14T12:49:02;23.50;49.80
9847;DHT22;68671;50.084;8.794;2023-05-14T12:51:31;23.50;50.00
9847;DHT22;68671;50.084;8.794;2023-05-14T12:53:58;23.60;50.40
9847;DHT22;68671;50.084;8.794;2023-05-14T12:56:25;23.70;50.90
9847;DHT22;68671;50.084;8.794;2023-05-14T12:58:54;23.60;50.70
9847;DHT22;68671;50.084;8.794;2023-05-14T13:01:21;23.60;50.60
9847;DHT22;68671;50.084;8.794;2023-05-14T13:03:48;23.50;50.90
9847;DHT22;68671;50.084;8.794;2023-05-14T13:06:17;23.50;51.00
9847;DHT22;68671;50.084;8.794;2023-05-14T13:08:44;23.50;51.30
9847;DHT22;68671;50.084;8.794;2023-05-14T13:11:11;23.50;51.80
9847;DHT22;68671;50.084;8.794;2023-05-14T13:13:38;23.40;52.50
9847;DHT22;68671;50.084;8.794;2023-05-14T13:16:06;23.50;53.20
9847;DHT22;68671;50.084;8.794;2023-05-14T13:18:33;23.50;53.00
9847;DHT22;68671;50.084;8.794;2023-05-14T13:21:00;23.50;52.80
9847;DHT22;68671;50.084;8.794;2023-05-14T13:23:32;23.50;53.00
9847;DHT22;68671;50.084;8.794;2023-05-14T13:25:59;23.60;53.70
9847;DHT22;68671;50.084;8.794;2023-05-14T13:28:26;23.60;52.70
9847;DHT22;68671;50.084;8.794;2023-05-14T13:31:17;23.50;52.30
9847;DHT22;68671;50.084;8.794;2023-05-14T13:33:44;23.40;52.00
9847;DHT22;68671;50.084;8.794;2023-05-14T13:36:13;23.40;52.10
9847;DHT22;68671;50.084;8.794;2023-05-14T13:38:41;23.40;52.10
9847;DHT22;68671;50.084;8.794;2023-05-14T13:41:10;23.40;52.10
9847;DHT22;68671;50.084;8.794;2023-05-14T13:43:37;23.40;52.40
9847;DHT22;68671;50.084;8.794;2023-05-14T13:46:04;23.40;52.50
9847;DHT22;68671;50.084;8.794;2023-05-14T13:48:32;23.40;52.50
9847;DHT22;68671;50.084;8.794;2023-05-14T13:51:00;23.30;52.60
9847;DHT22;68671;50.084;8.794;2023-05-14T13:53:27;23.40;52.50
9847;DHT22;68671;50.084;8.794;2023-05-14T13:55:56;23.40;52.70
9847;DHT22;68671;50.084;8.794;2023-05-14T13:58:27;23.50;53.00
9847;DHT22;68671;50.084;8.794;2023-05-14T14:00:54;23.50;53.50
9847;DHT22;68671;50.084;8.794;2023-05-14T14:03:22;23.50;53.90
9847;DHT22;68671;50.084;8.794;2023-05-14T14:05:49;23.50;54.20
9847;DHT22;68671;50.084;8.794;2023-05-14T14:08:16;23.50;54.40
9847;DHT22;68671;50.084;8.794;2023-05-14T14:10:43;23.40;54.70
9847;DHT22;68671;50.084;8.794;2023-05-14T14:13:12;23.40;55.60
9847;DHT22;68671;50.084;8.794;2023-05-14T14:15:38;23.30;55.10
9847;DHT22;68671;50.084;8.794;2023-05-14T14:18:05;23.30;56.00
9847;DHT22;68671;50.084;8.794;2023-05-14T14:20:32;23.30;55.80
9847;DHT22;68671;50.084;8.794;2023-05-14T14:22:59;23.30;56.20
9847;DHT22;68671;50.084;8.794;2023-05-14T14:25:26;23.30;56.60
9847;DHT22;68671;50.084;8.794;2023-05-14T14:27:53;23.40;57.30
9847;DHT22;68671;50.084;8.794;2023-05-14T14:30:21;23.50;57.90
9847;DHT22;68671;50.084;8.794;2023-05-14T14:32:48;23.60;58.30
9847;DHT22;68671;50.084;8.794;2023-05-14T14:35:19;23.60;57.50
9847;DHT22;68671;50.084;8.794;2023-05-14T14:37:46;23.60;57.60
9847;DHT22;68671;50.084;8.794;2023-05-14T14:40:16;23.60;57.70
9847;DHT22;68671;50.084;8.794;2023-05-14T14:42:43;23.60;57.60
9847;DHT22;68671;50.084;8.794;2023-05-14T14:45:11;23.50;57.40
9847;DHT22;68671;50.084;8.794;2023-05-14T14:47:42;23.30;57.50
9847;DHT22;68671;50.084;8.794;2023-05-14T14:50:10;23.40;58.00
9847;DHT22;68671;50.084;8.794;2023-05-14T14:52:38;23.50;57.90
9847;DHT22;68671;50.084;8.794;2023-05-14T14:55:06;23.50;56.80
9847;DHT22;68671;50.084;8.794;2023-05-14T14:57:33;23.40;55.90
9847;DHT22;68671;50.084;8.794;2023-05-14T15:00:00;23.40;55.20
9847;DHT22;68671;50.084;8.794;2023-05-14T15:02:27;23.40;55.30
9847;DHT22;68671;50.084;8.794;2023-05-14T15:04:55;23.50;55.90
9847;DHT22;68671;50.084;8.794;2023-05-14T15:07:22;23.50;56.40
9847;DHT22;68671;50.084;8.794;2023-05-14T15:09:49;23.70;56.90
9847;DHT22;68671;50.084;8.794;2023-05-14T15:12:16;23.80;56.60
9847;DHT22;68671;50.084;8.794;2023-05-14T15:14:43;23.90;56.60
9847;DHT22;68671;50.084;8.794;2023-05-14T15:17:10;24.10;56.70
9847;DHT22;68671;50.084;8.794;2023-05-14T15:19:37;24.20;56.90
9847;DHT22;68671;50.084;8.794;2023-05-14T15:22:06;24.30;57.00
9847;DHT22;68671;50.084;8.794;2023-05-14T15:24:32;24.30;56.50
9847;DHT22;68671;50.084;8.794;2023-05-14T15:26:59;24.30;56.20
9847;DHT22;68671;50.084;8.794;2023-05-14T15:29:26;24.20;55.80
9847;DHT22;68671;50.084;8.794;2023-05-14T15:31:53;24.20;55.50
9847;DHT22;68671;50.084;8.794;2023-05-14T15:34:20;24.20;55.50
9847;DHT22;68671;50.084;8.794;2023-05-14T15:36:47;24.10;55.60
9847;DHT22;68671;50.084;8.794;2023-05-14T15:39:15;24.10;55.70
9847;DHT22;68671;50.084;8.794;2023-05-14T15:41:42;24.00;55.30
9847;DHT22;68671;50.084;8.794;2023-05-14T15:44:09;23.90;55.10
9847;DHT22;68671;50.084;8.794;2023-05-14T15:46:36;23.70;54.80
9847;DHT22;68671;50.084;8.794;2023-05-14T15:49:03;23.70;54.60
9847;DHT22;68671;50.084;8.794;2023-05-14T15:51:30;23.60;54.50
9847;DHT22;68671;50.084;8.794;2023-05-14T15:53:57;23.50;54.40
9847;DHT22;68671;50.084;8.794;2023-05-14T15:56:25;23.50;54.70
9847;DHT22;68671;50.084;8.794;2023-05-14T15:58:52;23.50;54.60
9847;DHT22;68671;50.084;8.794;2023-05-14T16:01:19;23.50;54.60
9847;DHT22;68671;50.084;8.794;2023-05-14T16:03:46;23.50;54.60
9847;DHT22;68671;50.084;8.794;2023-05-14T16:06:13;23.50;54.70
9847;DHT22;68671;50.084;8.794;2023-05-14T16:08:40;23.40;54.80
9847;DHT22;68671;50.084;8.794;2023-05-14T16:11:07;23.40;54.80
9847;DHT22;68671;50.084;8.794;2023-05-14T16:13:35;23.50;55.00
9847;DHT22;68671;50.084;8.794;2023-05-14T16:16:04;23.50;55.00
9847;DHT22;68671;50.084;8.794;2023-05-14T16:18:32;23.50;55.00
9847;DHT22;68671;50.084;8.794;2023-05-14T16:20:59;23.50;55.00
9847;DHT22;68671;50.084;8.794;2023-05-14T16:23:27;23.50;55.30
9847;DHT22;68671;50.084;8.794;2023-05-14T16:25:53;23.60;55.60
9847;DHT22;68671;50.084;8.794;2023-05-14T16:28:20;23.70;55.80
9847;DHT22;68671;50.084;8.794;2023-05-14T16:30:49;23.60;56.40
9847;DHT22;68671;50.084;8.794;2023-05-14T16:33:16;23.70;56.90
9847;DHT22;68671;50.084;8.794;2023-05-14T16:35:43;23.60;57.30
9847;DHT22;68671;50.084;8.794;2023-05-14T16:38:10;23.60;57.50
9847;DHT22;68671;50.084;8.794;2023-05-14T16:40:36;23.60;57.10
9847;DHT22;68671;50.084;8.794;2023-05-14T16:43:04;23.50;57.40
9847;DHT22;68671;50.084;8.794;2023-05-14T16:45:30;23.50;56.60
9847;DHT22;68671;50.084;8.794;2023-05-14T16:48:00;23.50;56.70
9847;DHT22;68671;50.084;8.794;2023-05-14T16:50:27;23.50;56.90
9847;DHT22;68671;50.084;8.794;2023-05-14T16:52:54;23.40;57.00
9847;DHT22;68671;50.084;8.794;2023-05-14T16:55:21;23.40;58.20
9847;DHT22;68671;50.084;8.794;2023-05-14T16:57:48;23.40;58.00
9847;DHT22;68671;50.084;8.794;2023-05-14T17:00:15;23.40;58.00
9847;DHT22;68671;50.084;8.794;2023-05-14T17:02:42;23.40;57.60
9847;DHT22;68671;50.084;8.794;2023-05-14T17:05:12;23.30;57.70
9847;DHT22;68671;50.084;8.794;2023-05-14T17:07:39;23.20;58.00
9847;DHT22;68671;50.084;8.794;2023-05-14T17:10:07;23.10;58.00
9847;DHT22;68671;50.084;8.794;2023-05-14T17:12:34;23.00;58.10
9847;DHT22;68671;50.084;8.794;2023-05-14T17:15:01;23.00;58.10
9847;DHT22;68671;50.084;8.794;2023-05-14T17:17:28;22.90;58.20
9847;DHT22;68671;50.084;8.794;2023-05-14T17:19:57;22.80;58.30